createdAt,value
2022-09-01T00:00:09.478Z,59.22
2022-09-01T00:02:37.114Z,59.24
2022-09-01T00:05:04.762Z,59.12
2022-09-01T00:07:31.937Z,59.71
2022-09-01T00:10:07.162Z,59.51
2022-09-01T00:12:34.561Z,59.49
2022-09-01T00:15:01.564Z,59.38
2022-09-01T00:17:28.528Z,59.46
2022-09-01T00:19:55.527Z,59.47
2022-09-01T00:22:22.443Z,59.46
2022-09-01T00:24:49.443Z,59.38
2022-09-01T00:27:16.734Z,59.30
2022-09-01T00:29:44.854Z,59.39
2022-09-01T00:32:12.405Z,59.28
2022-09-01T00:34:39.987Z,59.17
2022-09-01T00:37:07.830Z,59.51
2022-09-01T00:39:34.977Z,59.65
2022-09-01T00:42:02.144Z,59.60
2022-09-01T00:44:31.138Z,59.47
2022-09-01T00:46:59.788Z,59.30
2022-09-01T00:49:37.082Z,59.65
2022-09-01T00:52:21.708Z,59.80
2022-09-01T00:54:54.923Z,59.48
2022-09-01T00:57:22.632Z,59.62
2022-09-01T00:59:58.597Z,59.65
2022-09-01T01:02:26.470Z,59.60
2022-09-01T01:04:56.105Z,59.79
2022-09-01T01:07:24.134Z,59.91
2022-09-01T01:09:51.795Z,59.67
2022-09-01T01:12:19.053Z,59.68
2022-09-01T01:14:50.189Z,59.75
2022-09-01T01:17:20.878Z,59.70
2022-09-01T01:20:10.953Z,59.79
2022-09-01T01:23:03.794Z,59.94
2022-09-01T01:25:46.369Z,60.25
2022-09-01T01:28:37.113Z,59.83
2022-09-01T01:31:12.671Z,60.03
2022-09-01T01:33:55.571Z,60.11
2022-09-01T01:36:35.850Z,60.22
2022-09-01T01:39:15.103Z,60.08
2022-09-01T01:41:48.669Z,60.05
2022-09-01T01:44:20.117Z,60.17
2022-09-01T01:46:51.415Z,60.10
2022-09-01T01:49:22.739Z,60.15
2022-09-01T01:51:55.988Z,60.10
2022-09-01T01:54:31.300Z,60.07
2022-09-01T01:57:04.254Z,60.48
2022-09-01T01:59:33.413Z,60.53
2022-09-01T02:02:03.874Z,60.39
2022-09-01T02:04:33.935Z,60.47
2022-09-01T02:07:13.601Z,60.42
2022-09-01T02:09:44.124Z,60.61
2022-09-01T02:12:11.090Z,60.50
2022-09-01T02:14:43.773Z,60.44
2022-09-01T02:17:10.733Z,60.72
2022-09-01T02:19:40.549Z,60.82
2022-09-01T02:22:11.021Z,60.89
2022-09-01T02:24:38.521Z,60.77
2022-09-01T02:27:06.364Z,60.92
2022-09-01T02:29:35.117Z,60.86
2022-09-01T02:32:07.898Z,60.76
2022-09-01T02:34:35.079Z,61.02
2022-09-01T02:37:01.997Z,61.10
2022-09-01T02:39:34.490Z,61.14
2022-09-01T02:42:01.930Z,61.07
2022-09-01T02:44:31.033Z,60.93
2022-09-01T02:46:59.275Z,60.94
2022-09-01T02:49:29.998Z,60.97
2022-09-01T02:52:01.213Z,61.08
2022-09-01T02:54:31.937Z,60.60
2022-09-01T02:56:59.513Z,60.94
2022-09-01T02:59:30.416Z,60.93
2022-09-01T03:02:00.079Z,60.98
2022-09-01T03:04:27.280Z,60.91
2022-09-01T03:06:54.960Z,60.92
2022-09-01T03:09:23.087Z,60.86
2022-09-01T03:11:52.803Z,60.95
2022-09-01T03:14:21.555Z,60.82
2022-09-01T03:16:48.742Z,61.14
2022-09-01T03:19:16.671Z,60.81
2022-09-01T03:21:46.412Z,60.92
2022-09-01T03:24:18.681Z,60.95
2022-09-01T03:26:50.377Z,61.06
2022-09-01T03:29:19.537Z,60.86
2022-09-01T03:31:46.911Z,60.68
2022-09-01T03:34:19.240Z,61.00
2022-09-01T03:36:50.875Z,61.31
2022-09-01T03:39:24.769Z,61.22
2022-09-01T03:41:51.788Z,61.15
2022-09-01T03:44:19.871Z,61.05
2022-09-01T03:46:47.566Z,60.86
2022-09-01T03:49:15.624Z,60.86
2022-09-01T03:51:45.041Z,60.92
2022-09-01T03:54:12.727Z,60.99
2022-09-01T03:56:41.691Z,61.33
2022-09-01T03:59:17.099Z,61.33
2022-09-01T04:01:46.764Z,61.37
2022-09-01T04:04:15.097Z,61.29
2022-09-01T04:06:44.408Z,61.15
2022-09-01T04:09:12.215Z,61.17
2022-09-01T04:11:46.068Z,61.25
2022-09-01T04:14:15.376Z,61.32
2022-09-01T04:17:02.741Z,60.91
2022-09-01T04:19:30.610Z,61.20
2022-09-01T04:22:00.933Z,61.22
2022-09-01T04:24:35.747Z,61.29
2022-09-01T04:27:03.671Z,61.22
2022-09-01T04:29:32.877Z,61.22
2022-09-01T04:32:09.768Z,61.04
2022-09-01T04:34:40.331Z,61.11
2022-09-01T04:37:13.152Z,61.10
2022-09-01T04:39:51.301Z,60.91
2022-09-01T04:42:24.193Z,61.15
2022-09-01T04:44:53.903Z,61.09
2022-09-01T04:47:31.579Z,61.16
2022-09-01T04:50:13.880Z,61.11
2022-09-01T04:52:45.733Z,61.18
2022-09-01T04:55:26.556Z,61.20
2022-09-01T04:57:54.821Z,61.28
2022-09-01T05:00:23.425Z,61.17
2022-09-01T05:03:03.339Z,61.19
2022-09-01T05:05:45.496Z,61.23
2022-09-01T05:08:23.145Z,61.46
2022-09-01T05:10:53.684Z,61.37
2022-09-01T05:13:32.859Z,61.46
2022-09-01T05:16:12.908Z,61.67
2022-09-01T05:18:48.882Z,61.70
2022-09-01T05:21:22.247Z,61.88
2022-09-01T05:23:51.670Z,61.78
2022-09-01T05:26:24.301Z,61.82
2022-09-01T05:28:56.780Z,61.66
2022-09-01T05:31:28.067Z,61.74
2022-09-01T05:33:58.116Z,62.04
2022-09-01T05:36:26.776Z,62.17
2022-09-01T05:38:57.040Z,61.87
2022-09-01T05:41:24.712Z,62.07
2022-09-01T05:43:57.806Z,62.11
2022-09-01T05:46:28.349Z,62.10
2022-09-01T05:48:57.496Z,62.25
2022-09-01T05:51:44.045Z,62.31
2022-09-01T05:54:12.081Z,62.37
2022-09-01T05:56:43.645Z,62.48
2022-09-01T05:59:29.246Z,62.41
2022-09-01T06:02:04.111Z,62.93
2022-09-01T06:04:31.239Z,63.01
2022-09-01T06:07:09.625Z,62.83
2022-09-01T06:09:45.478Z,62.74
2022-09-01T06:12:23.105Z,62.95
2022-09-01T06:14:53.562Z,63.31
2022-09-01T06:17:27.374Z,63.41
2022-09-01T06:19:58.513Z,63.68
2022-09-01T06:22:28.558Z,63.77
2022-09-01T06:25:02.241Z,63.61
2022-09-01T06:27:34.452Z,63.73
2022-09-01T06:30:01.541Z,63.73
2022-09-01T06:32:33.679Z,63.73
2022-09-01T06:35:00.802Z,63.47
2022-09-01T06:37:28.864Z,63.54
2022-09-01T06:40:02.408Z,63.51
2022-09-01T06:42:31.427Z,63.42
2022-09-01T06:45:02.017Z,63.21
2022-09-01T06:47:29.005Z,63.37
2022-09-01T06:49:59.365Z,63.51
2022-09-01T06:52:27.327Z,63.29
2022-09-01T06:54:55.889Z,62.94
2022-09-01T07:00:20.188Z,62.59
2022-09-01T07:02:54.872Z,62.87
2022-09-01T07:06:03.205Z,62.69
2022-09-01T07:12:08.907Z,62.50
2022-09-01T07:17:42.370Z,61.84
2022-09-01T07:20:27.258Z,62.26
2022-09-01T07:23:06.471Z,62.17
2022-09-01T07:26:01.315Z,62.17
2022-09-01T07:28:36.588Z,61.66
2022-09-01T07:34:38.717Z,61.32
2022-09-01T07:39:51.532Z,61.01
2022-09-01T07:45:58.078Z,60.94
2022-09-01T07:48:36.602Z,60.40
2022-09-01T07:51:36.763Z,59.88
2022-09-01T07:54:05.949Z,60.29
2022-09-01T07:56:39.510Z,59.58
2022-09-01T07:59:10.611Z,60.05
2022-09-01T08:01:50.680Z,60.03
2022-09-01T08:04:22.808Z,59.51
2022-09-01T08:06:50.142Z,59.64
2022-09-01T08:09:33.040Z,59.29
2022-09-01T08:12:07.749Z,59.58
2022-09-01T08:14:39.437Z,59.07
2022-09-01T08:19:56.404Z,59.28
2022-09-01T08:22:43.314Z,59.19
2022-09-01T08:25:29.788Z,59.42
2022-09-01T08:28:00.373Z,59.86
2022-09-01T08:30:28.339Z,59.89
2022-09-01T08:32:55.788Z,59.69
2022-09-01T08:35:23.731Z,59.62
2022-09-01T08:37:52.179Z,59.83
2022-09-01T08:40:23.549Z,59.65
2022-09-01T08:43:49.055Z,59.53
2022-09-01T08:46:28.025Z,59.55
2022-09-01T08:52:33.207Z,59.58
2022-09-01T08:55:15.065Z,59.06
2022-09-01T08:57:46.052Z,59.11
2022-09-01T09:00:24.116Z,59.42
2022-09-01T09:03:23.306Z,59.29
2022-09-01T09:06:17.930Z,59.60
2022-09-01T09:09:05.583Z,59.10
2022-09-01T09:12:17.375Z,58.58
2022-09-01T09:14:56.237Z,57.76
2022-09-01T09:17:30.048Z,56.33
2022-09-01T09:19:56.978Z,55.73
2022-09-01T09:22:23.901Z,56.05
2022-09-01T09:25:04.952Z,56.25
2022-09-01T09:27:36.695Z,56.16
2022-09-01T09:30:26.483Z,55.63
2022-09-01T09:35:54.920Z,54.92
2022-09-01T09:38:29.227Z,54.11
2022-09-01T09:41:18.520Z,53.65
2022-09-01T09:44:01.141Z,54.70
2022-09-01T09:46:43.651Z,53.01
2022-09-01T09:49:36.533Z,53.29
2022-09-01T09:52:10.325Z,54.13
2022-09-01T09:55:00.441Z,53.83
2022-09-01T09:57:28.794Z,54.38
2022-09-01T10:00:15.534Z,54.05
2022-09-01T10:02:45.566Z,53.12
2022-09-01T10:05:27.822Z,52.85
2022-09-01T10:07:56.087Z,53.08
2022-09-01T10:10:57.764Z,53.48
2022-09-01T10:13:32.686Z,54.60
2022-09-01T10:16:10.566Z,55.03
2022-09-01T10:18:42.117Z,54.81
2022-09-01T10:21:15.820Z,54.67
2022-09-01T10:23:43.497Z,54.74
2022-09-01T10:26:24.335Z,54.37
2022-09-01T10:29:15.903Z,54.29
2022-09-01T10:31:43.266Z,54.18
2022-09-01T10:34:19.375Z,54.03
2022-09-01T10:36:54.902Z,53.29
2022-09-01T10:39:28.369Z,52.75
2022-09-01T10:42:07.244Z,52.95
2022-09-01T10:44:57.614Z,53.02
2022-09-01T10:47:33.669Z,52.58
2022-09-01T10:50:09.967Z,53.11
2022-09-01T10:52:43.775Z,53.18
2022-09-01T10:55:34.463Z,53.00
2022-09-01T11:01:48.339Z,52.55
2022-09-01T11:04:30.185Z,52.34
2022-09-01T11:07:13.852Z,50.37
2022-09-01T11:09:44.172Z,48.00
2022-09-01T11:12:40.032Z,48.60
2022-09-01T11:15:14.574Z,48.61
2022-09-01T11:17:53.594Z,48.51
2022-09-01T11:20:34.394Z,48.40
2022-09-01T11:23:27.648Z,48.16
2022-09-01T11:26:32.613Z,47.75
2022-09-01T11:28:59.551Z,45.55
2022-09-01T11:31:33.321Z,45.73
2022-09-01T11:34:11.458Z,46.95
2022-09-01T11:36:48.294Z,47.64
2022-09-01T11:39:18.187Z,47.35
2022-09-01T11:42:19.671Z,47.55
2022-09-01T11:44:57.933Z,47.82
2022-09-01T11:47:36.017Z,48.14
2022-09-01T11:50:19.066Z,48.68
2022-09-01T11:53:04.102Z,49.73
2022-09-01T11:55:45.613Z,49.76
2022-09-01T11:58:28.865Z,49.26
2022-09-01T12:01:00.491Z,49.36
2022-09-01T12:03:30.126Z,49.29
2022-09-01T12:06:01.220Z,49.48
2022-09-01T12:08:33.932Z,49.75
2022-09-01T12:11:31.355Z,49.46
2022-09-01T12:14:10.487Z,50.07
2022-09-01T12:16:42.315Z,50.14
2022-09-01T12:19:25.201Z,49.37
2022-09-01T12:22:04.813Z,48.25
2022-09-01T12:24:37.007Z,48.34
2022-09-01T12:27:04.954Z,48.15
2022-09-01T12:29:33.158Z,47.12
2022-09-01T12:32:01.562Z,47.10
2022-09-01T12:35:05.638Z,46.45
2022-09-01T12:37:36.766Z,44.62
2022-09-01T12:40:04.354Z,44.35
2022-09-01T12:42:38.985Z,44.19
2022-09-01T12:45:10.460Z,43.80
2022-09-01T12:47:37.327Z,42.48
2022-09-01T12:50:16.594Z,42.53
2022-09-01T12:52:53.265Z,42.32
2022-09-01T12:55:49.221Z,42.67
2022-09-01T12:58:25.674Z,42.93
2022-09-01T13:01:16.011Z,43.15
2022-09-01T13:04:10.616Z,43.19
2022-09-01T13:06:38.147Z,42.46
2022-09-01T13:09:05.261Z,41.73
2022-09-01T13:12:06.010Z,41.53
2022-09-01T13:14:19.114Z,41.65
2022-09-01T13:16:46.687Z,41.12
2022-09-01T13:19:17.968Z,41.62
2022-09-01T13:21:48.962Z,42.03
2022-09-01T13:24:15.863Z,41.18
2022-09-01T13:27:20.281Z,40.97
2022-09-01T13:29:30.072Z,41.89
2022-09-01T13:34:44.336Z,41.83
2022-09-01T13:37:11.254Z,41.47
2022-09-01T13:39:38.157Z,41.77
2022-09-01T13:42:05.235Z,41.98
2022-09-01T13:44:32.146Z,41.83
2022-09-01T13:46:59.534Z,42.00
2022-09-01T13:49:44.463Z,41.66
2022-09-01T13:52:13.491Z,41.55
2022-09-01T13:54:40.600Z,42.37
2022-09-01T13:57:07.800Z,42.36
2022-09-01T13:59:34.753Z,41.81
2022-09-01T14:02:01.777Z,42.57
2022-09-01T14:04:29.120Z,41.93
2022-09-01T14:06:56.492Z,42.40
2022-09-01T14:09:23.448Z,42.02
2022-09-01T14:11:54.508Z,41.21
2022-09-01T14:14:22.059Z,40.72
2022-09-01T14:16:49.338Z,41.01
2022-09-01T14:19:16.468Z,40.83
2022-09-01T14:21:44.398Z,40.33
2022-09-01T14:24:13.028Z,40.63
2022-09-01T14:26:42.290Z,41.14
2022-09-01T14:29:09.470Z,41.10
2022-09-01T14:31:37.774Z,40.64
2022-09-01T14:34:06.703Z,40.85
2022-09-01T14:36:33.767Z,41.23
2022-09-01T14:39:00.668Z,41.22
2022-09-01T14:41:27.588Z,41.44
2022-09-01T14:44:02.831Z,40.21
2022-09-01T14:46:33.836Z,40.69
2022-09-01T14:49:02.153Z,40.72
2022-09-01T14:54:18.497Z,40.29
2022-09-01T14:57:28.672Z,39.54
2022-09-01T14:59:33.376Z,39.51
2022-09-01T15:02:00.408Z,39.19
2022-09-01T15:04:27.943Z,40.29
2022-09-01T15:06:55.605Z,40.25
2022-09-01T15:09:22.983Z,40.18
2022-09-01T15:11:49.977Z,39.95
2022-09-01T15:14:16.909Z,39.73
2022-09-01T15:16:43.966Z,39.95
2022-09-01T15:19:13.269Z,39.64
2022-09-01T15:21:43.489Z,39.70
2022-09-01T15:24:11.175Z,39.57
2022-09-01T15:26:40.870Z,40.35
2022-09-01T15:29:13.200Z,40.55
2022-09-01T15:31:40.442Z,40.80
2022-09-01T15:34:07.550Z,41.09
2022-09-01T15:36:40.053Z,41.66
2022-09-01T15:39:08.300Z,42.20
2022-09-01T15:41:36.268Z,42.42
2022-09-01T15:44:06.968Z,42.69
2022-09-01T15:46:36.263Z,42.82
2022-09-01T15:49:07.452Z,42.94
2022-09-01T15:51:43.268Z,42.23
2022-09-01T15:54:17.443Z,42.29
2022-09-01T15:56:46.669Z,42.70
2022-09-01T15:59:14.518Z,42.92
2022-09-01T16:01:45.341Z,42.68
2022-09-01T16:04:20.008Z,42.65
2022-09-01T16:06:49.452Z,42.95
2022-09-01T16:09:18.399Z,43.23
2022-09-01T16:11:45.635Z,43.10
2022-09-01T16:14:12.851Z,43.42
2022-09-01T16:17:07.560Z,43.49
2022-09-01T16:20:18.723Z,43.57
2022-09-01T16:22:56.349Z,43.86
2022-09-01T16:25:31.510Z,43.77
2022-09-01T16:28:10.866Z,43.92
2022-09-01T16:30:38.892Z,43.33
2022-09-01T16:33:19.776Z,43.24
2022-09-01T16:36:14.488Z,43.15
2022-09-01T16:39:03.736Z,43.13
2022-09-01T16:42:03.273Z,43.37
2022-09-01T16:45:05.533Z,43.52
2022-09-01T16:48:06.708Z,43.79
2022-09-01T16:50:39.595Z,44.02
2022-09-01T16:53:30.991Z,44.19
2022-09-01T16:56:07.913Z,44.05
2022-09-01T16:58:46.411Z,43.95
2022-09-01T17:01:41.645Z,43.60
2022-09-01T17:04:50.298Z,43.44
2022-09-01T17:07:38.850Z,42.92
2022-09-01T17:10:20.651Z,43.14
2022-09-01T17:12:56.209Z,42.53
2022-09-01T17:15:41.119Z,42.72
2022-09-01T17:18:41.078Z,42.57
2022-09-01T17:21:21.530Z,42.54
2022-09-01T17:24:31.989Z,42.71
2022-09-01T17:27:07.826Z,42.82
2022-09-01T17:29:44.896Z,43.10
2022-09-01T17:32:52.172Z,43.45
2022-09-01T17:35:53.085Z,43.62
2022-09-01T17:38:54.123Z,44.35
2022-09-01T17:41:47.968Z,44.85
2022-09-01T17:44:56.169Z,44.80
2022-09-01T17:48:11.724Z,45.08
2022-09-01T17:51:02.341Z,45.41
2022-09-01T17:54:16.934Z,45.39
2022-09-01T17:57:09.305Z,46.00
2022-09-01T17:59:48.460Z,46.18
2022-09-01T18:02:52.223Z,46.37
2022-09-01T18:05:24.683Z,46.79
2022-09-01T18:08:36.476Z,46.88
2022-09-01T18:11:13.868Z,47.69
2022-09-01T18:14:09.255Z,47.28
2022-09-01T18:16:58.796Z,47.00
2022-09-01T18:19:35.980Z,46.88
2022-09-01T18:22:09.496Z,47.21
2022-09-01T18:24:54.439Z,47.44
2022-09-01T18:27:24.328Z,47.16
2022-09-01T18:29:53.183Z,47.20
2022-09-01T18:32:46.175Z,47.92
2022-09-01T18:35:13.364Z,47.87
2022-09-01T18:38:25.694Z,47.37
2022-09-01T18:41:39.388Z,48.11
2022-09-01T18:44:36.849Z,48.23
2022-09-01T18:47:10.510Z,48.06
2022-09-01T18:49:55.089Z,48.40
2022-09-01T18:52:47.688Z,49.18
2022-09-01T18:55:38.931Z,48.61
2022-09-01T18:58:26.444Z,48.77
2022-09-01T19:01:05.898Z,49.46
2022-09-01T19:03:49.007Z,49.23
2022-09-01T19:06:34.747Z,49.73
2022-09-01T19:09:22.687Z,49.23
2022-09-01T19:11:49.476Z,49.51
2022-09-01T19:14:31.540Z,49.48
2022-09-01T19:17:32.740Z,50.10
2022-09-01T19:20:04.983Z,49.69
2022-09-01T19:22:56.329Z,49.95
2022-09-01T19:25:33.895Z,49.44
2022-09-01T19:28:44.333Z,49.95
2022-09-01T19:31:32.456Z,49.77
2022-09-01T19:34:19.447Z,49.51
2022-09-01T19:36:59.707Z,49.37
2022-09-01T19:39:40.558Z,50.27
2022-09-01T19:42:53.229Z,49.72
2022-09-01T19:45:38.324Z,50.00
2022-09-01T19:48:18.040Z,50.20
2022-09-01T19:50:54.055Z,49.91
2022-09-01T19:54:10.674Z,49.91
2022-09-01T19:56:57.650Z,49.97
2022-09-01T19:59:33.966Z,49.98
2022-09-01T20:02:10.469Z,50.10
2022-09-01T20:04:47.854Z,50.19
2022-09-01T20:07:39.764Z,50.78
2022-09-01T20:10:37.037Z,50.87
2022-09-01T20:13:51.185Z,50.70
2022-09-01T20:16:33.146Z,50.83
2022-09-01T20:19:11.436Z,51.24
2022-09-01T20:21:45.931Z,51.13
2022-09-01T20:24:38.228Z,51.42
2022-09-01T20:27:48.048Z,51.23
2022-09-01T20:30:24.242Z,51.68
2022-09-01T20:33:03.455Z,51.96
2022-09-01T20:35:39.930Z,51.99
2022-09-01T20:38:46.176Z,51.84
2022-09-01T20:41:42.309Z,52.00
2022-09-01T20:44:24.736Z,52.43
2022-09-01T20:46:52.686Z,52.56
2022-09-01T20:49:19.810Z,52.45
2022-09-01T20:52:10.219Z,52.96
2022-09-01T20:55:13.047Z,53.23
2022-09-01T20:58:06.641Z,53.88
2022-09-01T21:00:47.043Z,54.18
2022-09-01T21:03:40.013Z,54.86
2022-09-01T21:06:33.176Z,55.00
2022-09-01T21:09:33.837Z,55.03
2022-09-01T21:12:10.289Z,54.87
2022-09-01T21:14:49.203Z,54.71
2022-09-01T21:18:08.031Z,54.78
2022-09-01T21:21:11.072Z,54.78
2022-09-01T21:23:37.979Z,54.61
2022-09-01T21:26:05.602Z,54.56
2022-09-01T21:28:34.090Z,54.87
2022-09-01T21:31:02.144Z,54.71
2022-09-01T21:33:32.104Z,54.79
2022-09-01T21:36:00.540Z,54.41
2022-09-01T21:38:29.426Z,54.71
2022-09-01T21:40:59.180Z,54.62
2022-09-01T21:43:32.535Z,54.80
2022-09-01T21:46:00.914Z,54.13
2022-09-01T21:48:28.531Z,54.59
2022-09-01T21:50:55.426Z,54.56
2022-09-01T21:53:22.412Z,54.89
2022-09-01T21:55:49.756Z,54.62
2022-09-01T21:58:16.691Z,54.84
2022-09-01T22:00:44.511Z,54.92
2022-09-01T22:03:12.482Z,55.00
2022-09-01T22:05:42.259Z,55.14
2022-09-01T22:08:12.202Z,54.90
2022-09-01T22:10:49.345Z,55.08
2022-09-01T22:13:18.182Z,54.92
2022-09-01T22:15:53.020Z,55.30
2022-09-01T22:18:21.630Z,55.43
2022-09-01T22:20:48.840Z,55.33
2022-09-01T22:23:16.860Z,55.32
2022-09-01T22:25:46.569Z,55.64
2022-09-01T22:28:14.048Z,55.82
2022-09-01T22:30:49.323Z,55.55
2022-09-01T22:33:16.992Z,55.52
2022-09-01T22:35:47.468Z,55.77
2022-09-01T22:38:15.771Z,55.71
2022-09-01T22:40:51.457Z,55.83
2022-09-01T22:43:19.252Z,55.83
2022-09-01T22:45:48.210Z,55.91
2022-09-01T22:48:18.236Z,55.80
2022-09-01T22:50:46.668Z,55.94
2022-09-01T22:53:15.333Z,55.95
2022-09-01T22:55:45.775Z,56.15
2022-09-01T22:58:13.648Z,56.27
2022-09-01T23:00:47.794Z,56.37
2022-09-01T23:03:15.445Z,56.38
2022-09-01T23:05:44.000Z,56.35
2022-09-01T23:08:11.557Z,56.60
2022-09-01T23:10:38.490Z,56.73
2022-09-01T23:13:05.684Z,56.54
2022-09-01T23:15:33.470Z,56.65
2022-09-01T23:18:00.498Z,56.67
2022-09-01T23:20:27.683Z,56.86
2022-09-01T23:22:54.655Z,57.26
2022-09-01T23:25:21.607Z,57.09
2022-09-01T23:27:48.625Z,57.25
2022-09-01T23:30:16.188Z,57.26
2022-09-01T23:32:43.639Z,57.25
2022-09-01T23:35:10.918Z,57.20
2022-09-01T23:37:37.917Z,57.21
2022-09-01T23:40:07.871Z,57.24
2022-09-01T23:42:35.088Z,57.30
2022-09-01T23:45:02.036Z,57.27
2022-09-01T23:47:31.012Z,57.35
2022-09-01T23:49:57.975Z,57.47
2022-09-01T23:52:25.284Z,57.62
2022-09-01T23:54:52.188Z,57.43
2022-09-01T23:57:19.138Z,57.54
2022-09-01T23:59:46.160Z,57.83
